sensor_id;sensor_type;location;lat;lon;timestamp;P1;durP1;ratioP1;P2;durP2;ratioP2
35488;SDS011;21602;55.670;37.578;2023-01-19T00:01:24;23.60;;;11.77;;
35488;SDS011;21602;55.670;37.578;2023-01-19T00:03:50;18.73;;;11.20;;
35488;SDS011;21602;55.670;37.578;2023-01-19T00:06:17;23.17;;;12.00;;
35488;SDS011;21602;55.670;37.578;2023-01-19T00:08:43;24.38;;;11.93;;
35488;SDS011;21602;55.670;37.578;2023-01-19T00:11:10;21.25;;;12.02;;
35488;SDS011;21602;55.670;37.578;2023-01-19T00:13:37;23.85;;;11.50;;
35488;SDS011;21602;55.670;37.578;2023-01-19T00:16:05;20.52;;;11.90;;
35488;SDS011;21602;55.670;37.578;2023-01-19T00:18:32;29.10;;;13.20;;
35488;SDS011;21602;55.670;37.578;2023-01-19T00:20:58;12.43;;;6.60;;
35488;SDS011;21602;55.670;37.578;2023-01-19T00:23:24;19.17;;;10.10;;
35488;SDS011;21602;55.670;37.578;2023-01-19T00:25:51;16.25;;;9.40;;
35488;SDS011;21602;55.670;37.578;2023-01-19T00:28:17;24.25;;;11.70;;
35488;SDS011;21602;55.670;37.578;2023-01-19T00:30:44;17.02;;;10.60;;
35488;SDS011;21602;55.670;37.578;2023-01-19T00:33:11;16.17;;;8.37;;
35488;SDS011;21602;55.670;37.578;2023-01-19T00:35:38;18.50;;;9.70;;
35488;SDS011;21602;55.670;37.578;2023-01-19T00:38:07;14.77;;;9.75;;
35488;SDS011;21602;55.670;37.578;2023-01-19T00:40:32;17.33;;;9.70;;
35488;SDS011;21602;55.670;37.578;2023-01-19T00:42:58;18.67;;;10.13;;
35488;SDS011;21602;55.670;37.578;2023-01-19T00:45:24;22.05;;;11.27;;
35488;SDS011;21602;55.670;37.578;2023-01-19T00:47:50;17.90;;;9.63;;
35488;SDS011;21602;55.670;37.578;2023-01-19T00:50:21;19.13;;;10.82;;
35488;SDS011;21602;55.670;37.578;2023-01-19T00:52:51;19.40;;;10.52;;
35488;SDS011;21602;55.670;37.578;2023-01-19T00:55:18;13.93;;;8.38;;
35488;SDS011;21602;55.670;37.578;2023-01-19T00:57:44;17.55;;;9.90;;
35488;SDS011;21602;55.670;37.578;2023-01-19T01:00:16;24.42;;;11.55;;
35488;SDS011;21602;55.670;37.578;2023-01-19T01:02:44;14.95;;;8.80;;
35488;SDS011;21602;55.670;37.578;2023-01-19T01:05:11;20.17;;;9.93;;
35488;SDS011;21602;55.670;37.578;2023-01-19T01:07:37;15.98;;;9.15;;
35488;SDS011;21602;55.670;37.578;2023-01-19T01:12:38;15.48;;;9.98;;
35488;SDS011;21602;55.670;37.578;2023-01-19T01:15:08;17.63;;;9.93;;
35488;SDS011;21602;55.670;37.578;2023-01-19T01:17:36;19.70;;;10.63;;
35488;SDS011;21602;55.670;37.578;2023-01-19T01:20:02;22.27;;;11.98;;
35488;SDS011;21602;55.670;37.578;2023-01-19T01:22:29;21.55;;;11.95;;
35488;SDS011;21602;55.670;37.578;2023-01-19T01:24:55;19.88;;;10.48;;
35488;SDS011;21602;55.670;37.578;2023-01-19T01:27:21;21.77;;;12.52;;
35488;SDS011;21602;55.670;37.578;2023-01-19T01:29:47;20.85;;;11.80;;
35488;SDS011;21602;55.670;37.578;2023-01-19T01:32:13;21.75;;;12.02;;
35488;SDS011;21602;55.670;37.578;2023-01-19T01:34:39;16.73;;;9.52;;
35488;SDS011;21602;55.670;37.578;2023-01-19T01:37:05;17.58;;;9.85;;
35488;SDS011;21602;55.670;37.578;2023-01-19T01:39:33;24.60;;;12.07;;
35488;SDS011;21602;55.670;37.578;2023-01-19T01:42:00;22.17;;;11.82;;
35488;SDS011;21602;55.670;37.578;2023-01-19T01:44:42;21.90;;;10.43;;
35488;SDS011;21602;55.670;37.578;2023-01-19T01:47:20;20.95;;;11.63;;
35488;SDS011;21602;55.670;37.578;2023-01-19T01:52:48;19.05;;;11.10;;
35488;SDS011;21602;55.670;37.578;2023-01-19T01:55:17;22.73;;;11.32;;
35488;SDS011;21602;55.670;37.578;2023-01-19T01:57:48;19.02;;;10.65;;
35488;SDS011;21602;55.670;37.578;2023-01-19T02:00:16;22.00;;;11.38;;
35488;SDS011;21602;55.670;37.578;2023-01-19T02:02:44;22.75;;;13.32;;
35488;SDS011;21602;55.670;37.578;2023-01-19T02:05:17;20.13;;;11.10;;
35488;SDS011;21602;55.670;37.578;2023-01-19T02:07:54;23.30;;;11.57;;
35488;SDS011;21602;55.670;37.578;2023-01-19T02:10:47;25.60;;;13.20;;
35488;SDS011;21602;55.670;37.578;2023-01-19T02:13:34;19.42;;;12.23;;
35488;SDS011;21602;55.670;37.578;2023-01-19T02:16:07;14.05;;;6.80;;
35488;SDS011;21602;55.670;37.578;2023-01-19T02:18:34;19.65;;;11.57;;
35488;SDS011;21602;55.670;37.578;2023-01-19T02:23:48;23.05;;;12.43;;
35488;SDS011;21602;55.670;37.578;2023-01-19T02:26:23;21.52;;;12.20;;
35488;SDS011;21602;55.670;37.578;2023-01-19T02:28:58;21.05;;;12.90;;
35488;SDS011;21602;55.670;37.578;2023-01-19T02:31:25;22.48;;;12.85;;
35488;SDS011;21602;55.670;37.578;2023-01-19T02:33:53;24.73;;;13.55;;
35488;SDS011;21602;55.670;37.578;2023-01-19T02:36:20;21.08;;;12.43;;
35488;SDS011;21602;55.670;37.578;2023-01-19T02:38:50;22.10;;;12.60;;
35488;SDS011;21602;55.670;37.578;2023-01-19T02:41:21;23.60;;;13.07;;
35488;SDS011;21602;55.670;37.578;2023-01-19T02:43:52;27.20;;;12.55;;
35488;SDS011;21602;55.670;37.578;2023-01-19T02:46:20;22.17;;;11.90;;
35488;SDS011;21602;55.670;37.578;2023-01-19T02:48:46;24.33;;;12.95;;
35488;SDS011;21602;55.670;37.578;2023-01-19T02:51:13;21.17;;;11.63;;
35488;SDS011;21602;55.670;37.578;2023-01-19T03:10:14;19.25;;;8.85;;
35488;SDS011;21602;55.670;37.578;2023-01-19T03:12:43;15.93;;;8.45;;
35488;SDS011;21602;55.670;37.578;2023-01-19T03:15:28;17.38;;;10.07;;
35488;SDS011;21602;55.670;37.578;2023-01-19T03:18:09;20.45;;;11.90;;
35488;SDS011;21602;55.670;37.578;2023-01-19T03:20:38;19.00;;;10.50;;
35488;SDS011;21602;55.670;37.578;2023-01-19T03:23:07;18.42;;;11.13;;
35488;SDS011;21602;55.670;37.578;2023-01-19T03:25:36;19.38;;;9.98;;
35488;SDS011;21602;55.670;37.578;2023-01-19T03:28:07;19.08;;;10.75;;
35488;SDS011;21602;55.670;37.578;2023-01-19T03:30:43;18.33;;;10.75;;
35488;SDS011;21602;55.670;37.578;2023-01-19T03:35:48;14.60;;;9.18;;
35488;SDS011;21602;55.670;37.578;2023-01-19T03:38:17;20.48;;;10.13;;
35488;SDS011;21602;55.670;37.578;2023-01-19T03:40:50;21.90;;;12.30;;
35488;SDS011;21602;55.670;37.578;2023-01-19T03:43:20;16.30;;;10.35;;
35488;SDS011;21602;55.670;37.578;2023-01-19T03:45:48;14.70;;;10.32;;
35488;SDS011;21602;55.670;37.578;2023-01-19T03:48:15;19.08;;;9.65;;
35488;SDS011;21602;55.670;37.578;2023-01-19T03:50:42;18.25;;;10.32;;
35488;SDS011;21602;55.670;37.578;2023-01-19T03:53:09;20.23;;;10.52;;
35488;SDS011;21602;55.670;37.578;2023-01-19T03:55:38;16.83;;;9.65;;
35488;SDS011;21602;55.670;37.578;2023-01-19T04:00:31;15.32;;;10.52;;
35488;SDS011;21602;55.670;37.578;2023-01-19T04:02:58;17.75;;;9.60;;
35488;SDS011;21602;55.670;37.578;2023-01-19T04:05:24;15.52;;;8.77;;
35488;SDS011;21602;55.670;37.578;2023-01-19T04:07:50;14.90;;;9.75;;
35488;SDS011;21602;55.670;37.578;2023-01-19T04:10:17;17.70;;;9.27;;
35488;SDS011;21602;55.670;37.578;2023-01-19T04:12:44;15.25;;;10.02;;
35488;SDS011;21602;55.670;37.578;2023-01-19T04:15:10;15.63;;;8.90;;
35488;SDS011;21602;55.670;37.578;2023-01-19T04:17:36;15.65;;;7.97;;
35488;SDS011;21602;55.670;37.578;2023-01-19T04:20:03;15.77;;;9.85;;
35488;SDS011;21602;55.670;37.578;2023-01-19T04:22:30;19.80;;;10.05;;
35488;SDS011;21602;55.670;37.578;2023-01-19T04:24:56;16.27;;;9.68;;
35488;SDS011;21602;55.670;37.578;2023-01-19T04:27:22;18.60;;;9.98;;
35488;SDS011;21602;55.670;37.578;2023-01-19T04:29:48;13.32;;;8.95;;
35488;SDS011;21602;55.670;37.578;2023-01-19T04:32:15;14.73;;;9.25;;
35488;SDS011;21602;55.670;37.578;2023-01-19T04:34:41;14.70;;;9.48;;
35488;SDS011;21602;55.670;37.578;2023-01-19T04:37:08;16.35;;;8.82;;
35488;SDS011;21602;55.670;37.578;2023-01-19T04:39:33;15.18;;;10.05;;
35488;SDS011;21602;55.670;37.578;2023-01-19T04:41:59;17.55;;;10.13;;
35488;SDS011;21602;55.670;37.578;2023-01-19T04:44:25;17.50;;;9.40;;
35488;SDS011;21602;55.670;37.578;2023-01-19T04:46:52;17.80;;;10.10;;
35488;SDS011;21602;55.670;37.578;2023-01-19T04:49:19;23.27;;;11.88;;
35488;SDS011;21602;55.670;37.578;2023-01-19T04:51:45;13.88;;;9.18;;
35488;SDS011;21602;55.670;37.578;2023-01-19T04:54:11;20.30;;;10.38;;
35488;SDS011;21602;55.670;37.578;2023-01-19T04:56:38;18.50;;;10.57;;
35488;SDS011;21602;55.670;37.578;2023-01-19T04:59:07;21.88;;;9.98;;
35488;SDS011;21602;55.670;37.578;2023-01-19T05:01:33;16.20;;;9.73;;
35488;SDS011;21602;55.670;37.578;2023-01-19T05:03:59;17.33;;;10.15;;
35488;SDS011;21602;55.670;37.578;2023-01-19T05:06:26;18.23;;;9.77;;
35488;SDS011;21602;55.670;37.578;2023-01-19T05:08:52;16.67;;;10.77;;
35488;SDS011;21602;55.670;37.578;2023-01-19T05:11:24;18.23;;;10.45;;
35488;SDS011;21602;55.670;37.578;2023-01-19T05:13:50;18.30;;;10.20;;
35488;SDS011;21602;55.670;37.578;2023-01-19T05:16:16;17.83;;;10.27;;
35488;SDS011;21602;55.670;37.578;2023-01-19T05:18:41;11.57;;;7.45;;
35488;SDS011;21602;55.670;37.578;2023-01-19T05:21:07;16.13;;;8.85;;
35488;SDS011;21602;55.670;37.578;2023-01-19T05:23:33;16.48;;;9.35;;
35488;SDS011;21602;55.670;37.578;2023-01-19T05:25:59;17.63;;;10.63;;
35488;SDS011;21602;55.670;37.578;2023-01-19T05:28:26;17.52;;;9.82;;
35488;SDS011;21602;55.670;37.578;2023-01-19T05:30:53;14.73;;;8.32;;
35488;SDS011;21602;55.670;37.578;2023-01-19T05:33:19;16.88;;;10.35;;
35488;SDS011;21602;55.670;37.578;2023-01-19T05:35:48;17.27;;;9.90;;
35488;SDS011;21602;55.670;37.578;2023-01-19T05:40:41;13.98;;;8.40;;
35488;SDS011;21602;55.670;37.578;2023-01-19T05:43:07;17.10;;;10.88;;
35488;SDS011;21602;55.670;37.578;2023-01-19T05:45:34;17.55;;;8.93;;
35488;SDS011;21602;55.670;37.578;2023-01-19T05:48:00;19.58;;;10.40;;
35488;SDS011;21602;55.670;37.578;2023-01-19T05:50:26;19.13;;;10.32;;
35488;SDS011;21602;55.670;37.578;2023-01-19T05:52:52;18.42;;;9.98;;
35488;SDS011;21602;55.670;37.578;2023-01-19T05:55:18;16.50;;;10.23;;
35488;SDS011;21602;55.670;37.578;2023-01-19T05:57:45;16.80;;;9.88;;
35488;SDS011;21602;55.670;37.578;2023-01-19T06:00:11;19.63;;;10.20;;
35488;SDS011;21602;55.670;37.578;2023-01-19T06:02:38;16.75;;;9.93;;
35488;SDS011;21602;55.670;37.578;2023-01-19T06:05:04;16.90;;;10.25;;
35488;SDS011;21602;55.670;37.578;2023-01-19T06:07:30;20.83;;;11.38;;
35488;SDS011;21602;55.670;37.578;2023-01-19T06:09:56;16.33;;;10.05;;
35488;SDS011;21602;55.670;37.578;2023-01-19T06:12:23;16.38;;;9.98;;
35488;SDS011;21602;55.670;37.578;2023-01-19T06:14:49;19.88;;;10.63;;
35488;SDS011;21602;55.670;37.578;2023-01-19T06:17:16;17.25;;;10.02;;
35488;SDS011;21602;55.670;37.578;2023-01-19T06:19:41;20.42;;;10.45;;
35488;SDS011;21602;55.670;37.578;2023-01-19T06:22:07;19.27;;;11.85;;
35488;SDS011;21602;55.670;37.578;2023-01-19T06:24:33;19.52;;;10.45;;
35488;SDS011;21602;55.670;37.578;2023-01-19T06:26:59;18.15;;;10.75;;
35488;SDS011;21602;55.670;37.578;2023-01-19T06:29:25;24.55;;;12.15;;
35488;SDS011;21602;55.670;37.578;2023-01-19T06:31:51;20.17;;;11.63;;
35488;SDS011;21602;55.670;37.578;2023-01-19T06:34:17;20.25;;;10.80;;
35488;SDS011;21602;55.670;37.578;2023-01-19T06:36:44;22.30;;;11.25;;
35488;SDS011;21602;55.670;37.578;2023-01-19T06:39:11;20.25;;;11.55;;
35488;SDS011;21602;55.670;37.578;2023-01-19T06:41:37;22.55;;;11.82;;
35488;SDS011;21602;55.670;37.578;2023-01-19T06:44:03;21.40;;;11.23;;
35488;SDS011;21602;55.670;37.578;2023-01-19T06:46:30;20.27;;;11.40;;
35488;SDS011;21602;55.670;37.578;2023-01-19T06:48:56;29.23;;;12.20;;
35488;SDS011;21602;55.670;37.578;2023-01-19T06:51:22;20.02;;;12.07;;
35488;SDS011;21602;55.670;37.578;2023-01-19T06:53:48;22.23;;;11.50;;
35488;SDS011;21602;55.670;37.578;2023-01-19T06:56:14;19.65;;;11.52;;
35488;SDS011;21602;55.670;37.578;2023-01-19T06:58:41;22.20;;;12.60;;
35488;SDS011;21602;55.670;37.578;2023-01-19T07:01:07;20.35;;;11.60;;
35488;SDS011;21602;55.670;37.578;2023-01-19T07:03:34;22.05;;;11.38;;
35488;SDS011;21602;55.670;37.578;2023-01-19T07:06:02;19.02;;;10.65;;
35488;SDS011;21602;55.670;37.578;2023-01-19T07:08:32;20.10;;;12.00;;
35488;SDS011;21602;55.670;37.578;2023-01-19T07:11:00;20.00;;;12.30;;
35488;SDS011;21602;55.670;37.578;2023-01-19T07:13:26;22.77;;;12.13;;
35488;SDS011;21602;55.670;37.578;2023-01-19T07:15:52;17.40;;;11.05;;
35488;SDS011;21602;55.670;37.578;2023-01-19T07:18:18;23.80;;;11.82;;
35488;SDS011;21602;55.670;37.578;2023-01-19T07:20:44;20.42;;;11.23;;
35488;SDS011;21602;55.670;37.578;2023-01-19T07:23:13;19.95;;;12.05;;
35488;SDS011;21602;55.670;37.578;2023-01-19T07:25:43;24.80;;;12.15;;
35488;SDS011;21602;55.670;37.578;2023-01-19T07:28:10;18.27;;;10.73;;
35488;SDS011;21602;55.670;37.578;2023-01-19T07:30:40;19.02;;;10.90;;
35488;SDS011;21602;55.670;37.578;2023-01-19T07:33:10;19.85;;;11.65;;
35488;SDS011;21602;55.670;37.578;2023-01-19T07:35:36;23.77;;;12.70;;
35488;SDS011;21602;55.670;37.578;2023-01-19T07:38:05;20.15;;;11.68;;
35488;SDS011;21602;55.670;37.578;2023-01-19T07:40:31;23.80;;;12.52;;
35488;SDS011;21602;55.670;37.578;2023-01-19T07:42:58;20.73;;;11.73;;
35488;SDS011;21602;55.670;37.578;2023-01-19T07:45:23;21.98;;;12.73;;
35488;SDS011;21602;55.670;37.578;2023-01-19T07:47:49;20.10;;;11.95;;
35488;SDS011;21602;55.670;37.578;2023-01-19T07:50:16;20.77;;;11.82;;
35488;SDS011;21602;55.670;37.578;2023-01-19T07:56:06;22.52;;;12.98;;
35488;SDS011;21602;55.670;37.578;2023-01-19T07:58:33;24.60;;;12.88;;
35488;SDS011;21602;55.670;37.578;2023-01-19T08:00:59;25.33;;;12.80;;
35488;SDS011;21602;55.670;37.578;2023-01-19T08:03:25;24.45;;;12.45;;
35488;SDS011;21602;55.670;37.578;2023-01-19T08:05:51;22.70;;;13.45;;
35488;SDS011;21602;55.670;37.578;2023-01-19T08:08:18;20.50;;;11.60;;
35488;SDS011;21602;55.670;37.578;2023-01-19T08:10:44;24.80;;;12.13;;
35488;SDS011;21602;55.670;37.578;2023-01-19T08:13:13;21.08;;;12.23;;
35488;SDS011;21602;55.670;37.578;2023-01-19T08:15:39;20.17;;;12.85;;
35488;SDS011;21602;55.670;37.578;2023-01-19T08:18:05;21.90;;;12.48;;
35488;SDS011;21602;55.670;37.578;2023-01-19T08:20:34;23.25;;;12.63;;
35488;SDS011;21602;55.670;37.578;2023-01-19T08:23:00;27.45;;;13.30;;
35488;SDS011;21602;55.670;37.578;2023-01-19T08:28:01;19.42;;;11.32;;
35488;SDS011;21602;55.670;37.578;2023-01-19T08:30:28;23.65;;;12.80;;
35488;SDS011;21602;55.670;37.578;2023-01-19T08:32:54;23.70;;;12.32;;
35488;SDS011;21602;55.670;37.578;2023-01-19T08:35:35;20.67;;;11.85;;
35488;SDS011;21602;55.670;37.578;2023-01-19T08:38:03;22.23;;;12.00;;
35488;SDS011;21602;55.670;37.578;2023-01-19T08:40:30;20.30;;;12.73;;
35488;SDS011;21602;55.670;37.578;2023-01-19T08:42:59;20.63;;;11.90;;
35488;SDS011;21602;55.670;37.578;2023-01-19T08:45:29;26.23;;;13.65;;
35488;SDS011;21602;55.670;37.578;2023-01-19T08:47:56;18.05;;;11.60;;
35488;SDS011;21602;55.670;37.578;2023-01-19T08:50:26;20.95;;;11.82;;
35488;SDS011;21602;55.670;37.578;2023-01-19T08:52:56;21.60;;;12.15;;
35488;SDS011;21602;55.670;37.578;2023-01-19T08:55:24;23.77;;;12.35;;
35488;SDS011;21602;55.670;37.578;2023-01-19T08:57:53;21.58;;;12.45;;
35488;SDS011;21602;55.670;37.578;2023-01-19T09:00:21;20.55;;;12.23;;
35488;SDS011;21602;55.670;37.578;2023-01-19T09:02:47;21.35;;;13.30;;
35488;SDS011;21602;55.670;37.578;2023-01-19T09:05:14;26.65;;;13.77;;
35488;SDS011;21602;55.670;37.578;2023-01-19T09:07:39;23.15;;;12.77;;
35488;SDS011;21602;55.670;37.578;2023-01-19T09:10:06;26.83;;;12.07;;
35488;SDS011;21602;55.670;37.578;2023-01-19T09:12:32;22.60;;;13.18;;
35488;SDS011;21602;55.670;37.578;2023-01-19T09:14:58;22.15;;;13.68;;
35488;SDS011;21602;55.670;37.578;2023-01-19T09:17:24;26.30;;;12.73;;
35488;SDS011;21602;55.670;37.578;2023-01-19T09:19:50;25.00;;;13.43;;
35488;SDS011;21602;55.670;37.578;2023-01-19T09:22:16;25.17;;;12.93;;
35488;SDS011;21602;55.670;37.578;2023-01-19T09:24:42;24.02;;;13.02;;
35488;SDS011;21602;55.670;37.578;2023-01-19T09:27:07;26.65;;;13.07;;
35488;SDS011;21602;55.670;37.578;2023-01-19T09:29:33;28.95;;;13.70;;
35488;SDS011;21602;55.670;37.578;2023-01-19T09:32:00;24.80;;;13.18;;
35488;SDS011;21602;55.670;37.578;2023-01-19T09:34:26;24.05;;;12.27;;
35488;SDS011;21602;55.670;37.578;2023-01-19T09:36:52;23.23;;;12.07;;
35488;SDS011;21602;55.670;37.578;2023-01-19T09:39:17;26.52;;;12.68;;
35488;SDS011;21602;55.670;37.578;2023-01-19T09:41:51;23.38;;;13.77;;
35488;SDS011;21602;55.670;37.578;2023-01-19T09:44:27;23.40;;;12.93;;
35488;SDS011;21602;55.670;37.578;2023-01-19T09:46:56;26.27;;;14.05;;
35488;SDS011;21602;55.670;37.578;2023-01-19T09:50:06;24.17;;;13.30;;
35488;SDS011;21602;55.670;37.578;2023-01-19T09:52:14;26.67;;;13.65;;
35488;SDS011;21602;55.670;37.578;2023-01-19T09:57:10;24.80;;;13.40;;
35488;SDS011;21602;55.670;37.578;2023-01-19T09:59:36;25.88;;;13.27;;
35488;SDS011;21602;55.670;37.578;2023-01-19T10:02:18;26.33;;;13.68;;
35488;SDS011;21602;55.670;37.578;2023-01-19T10:05:00;24.70;;;13.80;;
35488;SDS011;21602;55.670;37.578;2023-01-19T10:10:19;23.80;;;13.88;;
35488;SDS011;21602;55.670;37.578;2023-01-19T10:18:26;28.52;;;14.90;;
35488;SDS011;21602;55.670;37.578;2023-01-19T10:21:04;27.00;;;14.60;;
35488;SDS011;21602;55.670;37.578;2023-01-19T10:26:14;25.52;;;14.02;;
35488;SDS011;21602;55.670;37.578;2023-01-19T10:28:40;29.33;;;16.27;;
35488;SDS011;21602;55.670;37.578;2023-01-19T10:31:08;29.50;;;15.70;;
35488;SDS011;21602;55.670;37.578;2023-01-19T10:33:34;29.85;;;14.38;;
35488;SDS011;21602;55.670;37.578;2023-01-19T10:36:03;30.13;;;13.77;;
35488;SDS011;21602;55.670;37.578;2023-01-19T10:38:31;25.20;;;13.90;;
35488;SDS011;21602;55.670;37.578;2023-01-19T10:43:45;29.88;;;14.48;;
35488;SDS011;21602;55.670;37.578;2023-01-19T10:48:49;31.40;;;16.13;;
35488;SDS011;21602;55.670;37.578;2023-01-19T10:51:16;32.78;;;17.23;;
35488;SDS011;21602;55.670;37.578;2023-01-19T10:53:44;33.50;;;16.27;;
35488;SDS011;21602;55.670;37.578;2023-01-19T10:56:23;34.67;;;16.55;;
35488;SDS011;21602;55.670;37.578;2023-01-19T10:58:52;31.50;;;16.35;;
35488;SDS011;21602;55.670;37.578;2023-01-19T11:01:24;38.15;;;17.15;;
35488;SDS011;21602;55.670;37.578;2023-01-19T11:03:53;39.47;;;18.25;;
35488;SDS011;21602;55.670;37.578;2023-01-19T11:06:22;30.95;;;15.40;;
35488;SDS011;21602;55.670;37.578;2023-01-19T11:08:50;34.00;;;17.98;;
35488;SDS011;21602;55.670;37.578;2023-01-19T11:11:18;41.05;;;17.25;;
35488;SDS011;21602;55.670;37.578;2023-01-19T11:14:00;29.65;;;15.85;;
35488;SDS011;21602;55.670;37.578;2023-01-19T11:16:43;34.65;;;16.23;;
35488;SDS011;21602;55.670;37.578;2023-01-19T11:19:19;32.88;;;15.35;;
35488;SDS011;21602;55.670;37.578;2023-01-19T11:21:50;33.88;;;16.45;;
35488;SDS011;21602;55.670;37.578;2023-01-19T11:24:16;29.05;;;15.23;;
35488;SDS011;21602;55.670;37.578;2023-01-19T11:26:47;31.90;;;15.23;;
35488;SDS011;21602;55.670;37.578;2023-01-19T11:29:24;30.95;;;16.20;;
35488;SDS011;21602;55.670;37.578;2023-01-19T11:31:52;32.35;;;15.63;;
35488;SDS011;21602;55.670;37.578;2023-01-19T11:34:26;24.63;;;14.05;;
35488;SDS011;21602;55.670;37.578;2023-01-19T11:36:58;31.58;;;14.88;;
35488;SDS011;21602;55.670;37.578;2023-01-19T11:39:27;30.83;;;15.20;;
35488;SDS011;21602;55.670;37.578;2023-01-19T11:41:55;31.63;;;15.90;;
35488;SDS011;21602;55.670;37.578;2023-01-19T11:44:28;31.17;;;15.95;;
35488;SDS011;21602;55.670;37.578;2023-01-19T11:46:58;32.67;;;15.80;;
35488;SDS011;21602;55.670;37.578;2023-01-19T11:49:37;29.33;;;16.17;;
35488;SDS011;21602;55.670;37.578;2023-01-19T11:57:44;30.67;;;14.38;;
35488;SDS011;21602;55.670;37.578;2023-01-19T12:02:48;35.20;;;15.55;;
35488;SDS011;21602;55.670;37.578;2023-01-19T12:05:19;30.48;;;16.25;;
35488;SDS011;21602;55.670;37.578;2023-01-19T12:07:57;40.78;;;17.83;;
35488;SDS011;21602;55.670;37.578;2023-01-19T12:10:31;36.00;;;16.70;;
35488;SDS011;21602;55.670;37.578;2023-01-19T12:13:00;41.22;;;18.95;;
35488;SDS011;21602;55.670;37.578;2023-01-19T12:15:42;32.45;;;16.45;;
35488;SDS011;21602;55.670;37.578;2023-01-19T12:18:12;31.85;;;16.50;;
35488;SDS011;21602;55.670;37.578;2023-01-19T12:20:45;30.17;;;16.63;;
35488;SDS011;21602;55.670;37.578;2023-01-19T12:28:17;39.33;;;17.17;;
35488;SDS011;21602;55.670;37.578;2023-01-19T12:30:47;32.50;;;16.40;;
35488;SDS011;21602;55.670;37.578;2023-01-19T12:33:20;31.60;;;15.88;;
35488;SDS011;21602;55.670;37.578;2023-01-19T12:35:57;32.15;;;14.30;;
35488;SDS011;21602;55.670;37.578;2023-01-19T12:38:45;33.40;;;16.95;;
35488;SDS011;21602;55.670;37.578;2023-01-19T12:41:30;31.05;;;16.63;;
35488;SDS011;21602;55.670;37.578;2023-01-19T12:46:37;34.50;;;15.80;;
35488;SDS011;21602;55.670;37.578;2023-01-19T12:51:34;29.27;;;14.85;;
35488;SDS011;21602;55.670;37.578;2023-01-19T12:54:03;33.03;;;15.65;;
35488;SDS011;21602;55.670;37.578;2023-01-19T12:56:32;33.28;;;15.52;;
35488;SDS011;21602;55.670;37.578;2023-01-19T12:59:01;33.55;;;15.88;;
35488;SDS011;21602;55.670;37.578;2023-01-19T13:01:29;27.77;;;15.60;;
35488;SDS011;21602;55.670;37.578;2023-01-19T13:04:05;32.97;;;14.48;;
35488;SDS011;21602;55.670;37.578;2023-01-19T13:14:42;40.00;;;17.15;;
35488;SDS011;21602;55.670;37.578;2023-01-19T13:20:04;35.30;;;17.98;;
35488;SDS011;21602;55.670;37.578;2023-01-19T13:25:20;38.45;;;17.67;;
35488;SDS011;21602;55.670;37.578;2023-01-19T13:30:19;33.75;;;16.65;;
35488;SDS011;21602;55.670;37.578;2023-01-19T13:32:48;43.47;;;18.80;;
35488;SDS011;21602;55.670;37.578;2023-01-19T13:35:18;36.20;;;18.45;;
35488;SDS011;21602;55.670;37.578;2023-01-19T13:37:46;36.65;;;18.08;;
35488;SDS011;21602;55.670;37.578;2023-01-19T13:42:50;38.13;;;17.10;;
35488;SDS011;21602;55.670;37.578;2023-01-19T13:47:50;37.80;;;16.20;;
35488;SDS011;21602;55.670;37.578;2023-01-19T13:50:18;38.45;;;16.08;;
35488;SDS011;21602;55.670;37.578;2023-01-19T13:52:45;43.78;;;19.23;;
35488;SDS011;21602;55.670;37.578;2023-01-19T13:55:13;41.25;;;17.02;;
35488;SDS011;21602;55.670;37.578;2023-01-19T13:57:40;36.53;;;18.10;;
35488;SDS011;21602;55.670;37.578;2023-01-19T14:02:39;38.35;;;16.73;;
35488;SDS011;21602;55.670;37.578;2023-01-19T14:10:37;41.00;;;17.25;;
35488;SDS011;21602;55.670;37.578;2023-01-19T14:13:33;35.42;;;17.80;;
35488;SDS011;21602;55.670;37.578;2023-01-19T14:16:11;34.55;;;15.95;;
35488;SDS011;21602;55.670;37.578;2023-01-19T14:18:43;36.37;;;17.77;;
35488;SDS011;21602;55.670;37.578;2023-01-19T14:21:13;39.95;;;18.25;;
35488;SDS011;21602;55.670;37.578;2023-01-19T14:26:38;40.28;;;17.17;;
35488;SDS011;21602;55.670;37.578;2023-01-19T14:32:05;40.75;;;19.38;;
35488;SDS011;21602;55.670;37.578;2023-01-19T14:34:38;38.05;;;18.33;;
35488;SDS011;21602;55.670;37.578;2023-01-19T14:37:24;38.90;;;17.48;;
35488;SDS011;21602;55.670;37.578;2023-01-19T14:42:42;40.05;;;18.83;;
35488;SDS011;21602;55.670;37.578;2023-01-19T14:45:18;33.95;;;17.17;;
35488;SDS011;21602;55.670;37.578;2023-01-19T14:47:53;32.60;;;16.45;;
35488;SDS011;21602;55.670;37.578;2023-01-19T14:50:26;32.38;;;15.73;;
35488;SDS011;21602;55.670;37.578;2023-01-19T14:52:57;34.38;;;17.05;;
35488;SDS011;21602;55.670;37.578;2023-01-19T14:55:36;28.25;;;15.10;;
35488;SDS011;21602;55.670;37.578;2023-01-19T14:58:10;29.48;;;15.88;;
35488;SDS011;21602;55.670;37.578;2023-01-19T15:00:37;32.75;;;16.35;;
35488;SDS011;21602;55.670;37.578;2023-01-19T15:03:04;31.15;;;14.07;;
35488;SDS011;21602;55.670;37.578;2023-01-19T15:05:31;33.72;;;16.75;;
35488;SDS011;21602;55.670;37.578;2023-01-19T15:07:57;31.98;;;16.67;;
35488;SDS011;21602;55.670;37.578;2023-01-19T15:10:26;30.15;;;16.02;;
35488;SDS011;21602;55.670;37.578;2023-01-19T15:12:52;27.90;;;15.52;;
35488;SDS011;21602;55.670;37.578;2023-01-19T15:15:31;31.63;;;16.70;;
35488;SDS011;21602;55.670;37.578;2023-01-19T15:17:59;27.50;;;14.55;;
35488;SDS011;21602;55.670;37.578;2023-01-19T15:20:29;28.08;;;15.32;;
35488;SDS011;21602;55.670;37.578;2023-01-19T15:22:55;28.45;;;14.45;;
35488;SDS011;21602;55.670;37.578;2023-01-19T15:25:22;29.67;;;15.35;;
35488;SDS011;21602;55.670;37.578;2023-01-19T15:27:52;29.23;;;12.98;;
35488;SDS011;21602;55.670;37.578;2023-01-19T15:30:24;27.60;;;15.43;;
35488;SDS011;21602;55.670;37.578;2023-01-19T15:35:18;22.42;;;12.40;;
35488;SDS011;21602;55.670;37.578;2023-01-19T15:37:46;29.23;;;14.32;;
35488;SDS011;21602;55.670;37.578;2023-01-19T15:40:13;25.88;;;14.35;;
35488;SDS011;21602;55.670;37.578;2023-01-19T15:42:39;29.95;;;15.70;;
35488;SDS011;21602;55.670;37.578;2023-01-19T15:47:49;23.67;;;12.63;;
35488;SDS011;21602;55.670;37.578;2023-01-19T15:50:16;23.02;;;13.38;;
35488;SDS011;21602;55.670;37.578;2023-01-19T15:52:44;29.85;;;14.48;;
35488;SDS011;21602;55.670;37.578;2023-01-19T15:55:11;24.73;;;13.07;;
35488;SDS011;21602;55.670;37.578;2023-01-19T15:57:40;23.73;;;13.95;;
35488;SDS011;21602;55.670;37.578;2023-01-19T16:00:06;22.23;;;13.10;;
35488;SDS011;21602;55.670;37.578;2023-01-19T16:02:35;24.65;;;13.48;;
35488;SDS011;21602;55.670;37.578;2023-01-19T16:05:01;24.92;;;13.32;;
35488;SDS011;21602;55.670;37.578;2023-01-19T16:07:28;24.67;;;14.23;;
35488;SDS011;21602;55.670;37.578;2023-01-19T16:09:53;26.77;;;14.07;;
35488;SDS011;21602;55.670;37.578;2023-01-19T16:12:19;22.75;;;13.02;;
35488;SDS011;21602;55.670;37.578;2023-01-19T16:14:45;19.48;;;11.75;;
35488;SDS011;21602;55.670;37.578;2023-01-19T16:17:12;23.38;;;13.80;;
35488;SDS011;21602;55.670;37.578;2023-01-19T16:19:41;20.52;;;12.40;;